Time;durP1;ratioP1;P1;durP2;ratioP2;P2;SDS_P1;SDS_P2;PMS_P1;PMS_P2;Temp;Humidity;BMP_temperature;BMP_pressure;BME280_temperature;BME280_humidity;BME280_pressure;Samples;Min_cycle;Max_cycle;Signal;HPM_P1;HPM_P2
2022/01/18 00:00:18;;;;;;;241.38;73.82;;;;;;;;;;5060070;28;20021;-76
2022/01/18 00:02:46;;;;;;;214.43;70.55;;;;;;;;;;5060553;28;20009;-76
2022/01/18 00:05:15;;;;;;;239.05;70.10;;;;;;;;;;5054807;28;20032;-75
2022/01/18 00:07:43;;;;;;;280.17;76.15;;;;;;;;;;5039591;28;20025;-77
2022/01/18 00:10:12;;;;;;;304.17;79.28;;;;;;;;;;5039889;28;20030;-75
2022/01/18 00:18:06;;;;;;;381.05;78.88;;;;;;;;;;5039356;28;20033;-75
2022/01/18 00:23:09;;;;;;;254.38;73.38;;;;;;;;;;5038589;28;20036;-74
2022/01/18 00:25:40;;;;;;;336.80;77.38;;;;;;;;;;5038390;28;20043;-74
2022/01/18 00:28:07;;;;;;;355.17;76.45;;;;;;;;;;5038331;28;20049;-74
2022/01/18 00:33:24;;;;;;;276.27;75.75;;;;;;;;;;5038039;28;20072;-73
2022/01/18 00:36:03;;;;;;;262.00;71.20;;;;;;;;;;5037751;28;20488;-74
2022/01/18 00:38:33;;;;;;;385.38;83.20;;;;;;;;;;5037919;28;20070;-73
2022/01/18 00:41:04;;;;;;;227.95;65.40;;;;;;;;;;5037075;28;20029;-74
2022/01/18 00:43:32;;;;;;;295.15;62.13;;;;;;;;;;5038345;28;20365;-75
2022/01/18 00:45:59;;;;;;;203.82;58.45;;;;;;;;;;5036833;28;20108;-75
2022/01/18 00:48:32;;;;;;;229.20;58.45;;;;;;;;;;5036355;28;20063;-77
2022/01/18 00:51:00;;;;;;;198.52;57.55;;;;;;;;;;5037294;28;20159;-76
2022/01/18 00:53:31;;;;;;;291.98;61.30;;;;;;;;;;5036166;28;20071;-75
2022/01/18 00:58:34;;;;;;;219.13;58.40;;;;;;;;;;5037838;28;20029;-75
2022/01/18 01:01:02;;;;;;;224.77;58.35;;;;;;;;;;5036156;28;20025;-74
2022/01/18 01:03:30;;;;;;;168.73;54.15;;;;;;;;;;5036007;28;20079;-74
2022/01/18 01:05:57;;;;;;;200.45;56.53;;;;;;;;;;5036916;28;20025;-74
2022/01/18 01:08:25;;;;;;;209.07;54.15;;;;;;;;;;5035775;28;20025;-75
2022/01/18 01:10:53;;;;;;;166.52;52.00;;;;;;;;;;5036866;28;20028;-74
2022/01/18 01:13:21;;;;;;;181.15;53.97;;;;;;;;;;5036570;28;20021;-75
2022/01/18 01:19:00;;;;;;;227.43;58.53;;;;;;;;;;5036904;28;20379;-75
2022/01/18 01:35:11;;;;;;;200.07;51.17;;;;;;;;;;5035990;28;20103;-73
2022/01/18 01:43:27;;;;;;;202.02;55.85;;;;;;;;;;5036185;28;20033;-75
2022/01/18 01:45:56;;;;;;;157.55;49.30;;;;;;;;;;5036112;28;20115;-77
2022/01/18 01:48:25;;;;;;;153.18;49.97;;;;;;;;;;5035753;28;20030;-77
2022/01/18 01:51:01;;;;;;;184.48;54.38;;;;;;;;;;5034961;28;20033;-72
2022/01/18 01:53:29;;;;;;;362.95;63.50;;;;;;;;;;5032864;28;20104;-76
2022/01/18 01:55:59;;;;;;;250.63;57.58;;;;;;;;;;5036264;28;20343;-75
2022/01/18 01:58:28;;;;;;;229.35;56.08;;;;;;;;;;5034173;28;20044;-76
2022/01/18 02:00:59;;;;;;;153.60;50.42;;;;;;;;;;5033834;28;20044;-74
2022/01/18 02:03:26;;;;;;;148.15;51.17;;;;;;;;;;5034232;28;20030;-78
2022/01/18 02:05:57;;;;;;;202.30;55.33;;;;;;;;;;5033414;28;20036;-78
2022/01/18 02:08:24;;;;;;;193.25;55.33;;;;;;;;;;5034941;28;20036;-79
2022/01/18 02:10:52;;;;;;;177.30;56.95;;;;;;;;;;5034809;28;20030;-77
2022/01/18 02:13:20;;;;;;;229.98;56.10;;;;;;;;;;5039346;28;20017;-79
2022/01/18 02:24:04;;;;;;;229.55;62.25;;;;;;;;;;5036860;28;20045;-82
2022/01/18 02:26:33;;;;;;;180.63;59.55;;;;;;;;;;5035011;28;20311;-83
2022/01/18 02:29:02;;;;;;;189.02;58.40;;;;;;;;;;5035926;28;20032;-82
2022/01/18 02:31:29;;;;;;;345.83;71.43;;;;;;;;;;5036140;28;20017;-76
2022/01/18 02:34:00;;;;;;;171.13;55.05;;;;;;;;;;5035424;28;20022;-79
2022/01/18 02:36:28;;;;;;;183.30;58.67;;;;;;;;;;5034639;28;20038;-76
2022/01/18 02:38:55;;;;;;;213.10;64.50;;;;;;;;;;5048393;28;20109;-79
2022/01/18 02:41:32;;;;;;;179.80;62.63;;;;;;;;;;5035376;28;20457;-79
2022/01/18 02:44:01;;;;;;;207.15;64.28;;;;;;;;;;5019879;28;20033;-80
2022/01/18 02:46:28;;;;;;;210.98;66.03;;;;;;;;;;5035023;28;20096;-76
2022/01/18 02:49:00;;;;;;;193.77;67.35;;;;;;;;;;5019475;28;20073;-78
2022/01/18 02:51:28;;;;;;;154.23;56.25;;;;;;;;;;5034752;28;20022;-78
2022/01/18 02:54:00;;;;;;;165.05;58.33;;;;;;;;;;5019477;28;20097;-78
2022/01/18 02:56:29;;;;;;;140.98;53.05;;;;;;;;;;5035173;28;20111;-77
2022/01/18 02:59:10;;;;;;;129.60;51.15;;;;;;;;;;5038734;28;20088;-76
2022/01/18 03:04:25;;;;;;;153.55;56.35;;;;;;;;;;4997338;28;20388;-79
2022/01/18 03:06:53;;;;;;;121.88;50.17;;;;;;;;;;4980950;28;20410;-79
2022/01/18 03:09:20;;;;;;;133.65;52.17;;;;;;;;;;4980968;28;20134;-76
2022/01/18 03:11:48;;;;;;;157.70;58.97;;;;;;;;;;4997291;28;20113;-77
2022/01/18 03:14:15;;;;;;;150.65;58.80;;;;;;;;;;4997092;28;20026;-77
2022/01/18 03:16:43;;;;;;;142.27;57.53;;;;;;;;;;4997422;28;20030;-77
2022/01/18 03:19:10;;;;;;;134.40;52.13;;;;;;;;;;4997040;28;20030;-77
2022/01/18 03:21:38;;;;;;;150.07;57.38;;;;;;;;;;4980756;28;20038;-73
2022/01/18 03:24:20;;;;;;;180.90;64.82;;;;;;;;;;4997097;28;20029;-75
2022/01/18 03:29:34;;;;;;;169.23;66.72;;;;;;;;;;4997550;28;20348;-77
2022/01/18 03:32:01;;;;;;;184.90;67.35;;;;;;;;;;4997067;28;20435;-76
2022/01/18 03:34:27;;;;;;;190.27;73.43;;;;;;;;;;4996607;28;20050;-72
2022/01/18 03:36:54;;;;;;;193.95;71.00;;;;;;;;;;4997251;28;20030;-73
2022/01/18 03:39:22;;;;;;;189.95;73.88;;;;;;;;;;4997202;28;20109;-71
2022/01/18 03:42:00;;;;;;;183.38;69.82;;;;;;;;;;4994917;28;20041;-72
2022/01/18 03:44:31;;;;;;;169.98;62.63;;;;;;;;;;4980145;28;20030;-75
2022/01/18 03:47:01;;;;;;;226.20;85.13;;;;;;;;;;4978381;28;20058;-75
2022/01/18 03:49:30;;;;;;;191.15;71.72;;;;;;;;;;4978008;28;20023;-77
2022/01/18 03:51:57;;;;;;;179.48;65.05;;;;;;;;;;4978132;28;20023;-77
2022/01/18 03:54:25;;;;;;;191.50;71.22;;;;;;;;;;4979043;28;20038;-77
2022/01/18 03:56:52;;;;;;;194.70;72.47;;;;;;;;;;4979597;28;20132;-78
2022/01/18 03:59:20;;;;;;;183.65;68.38;;;;;;;;;;4979249;28;20027;-72
2022/01/18 04:01:48;;;;;;;187.90;67.28;;;;;;;;;;4978757;28;20030;-72
2022/01/18 04:04:19;;;;;;;189.50;64.15;;;;;;;;;;4978620;28;20419;-70
2022/01/18 04:06:46;;;;;;;177.38;66.88;;;;;;;;;;4978662;28;20023;-76
2022/01/18 04:09:16;;;;;;;200.70;72.40;;;;;;;;;;4978247;28;20032;-78
2022/01/18 04:11:43;;;;;;;175.70;64.65;;;;;;;;;;4978547;28;20023;-79
2022/01/18 04:14:14;;;;;;;199.15;69.43;;;;;;;;;;4977401;28;20324;-74
2022/01/18 04:17:34;;;;;;;166.45;59.20;;;;;;;;;;4982544;28;20046;-72
2022/01/18 04:27:39;;;;;;;180.82;66.35;;;;;;;;;;4990951;28;20040;-70
2022/01/18 04:30:07;;;;;;;180.68;60.67;;;;;;;;;;4990308;28;20045;-74
2022/01/18 04:32:35;;;;;;;205.55;70.65;;;;;;;;;;4992189;28;20498;-80
2022/01/18 04:35:01;;;;;;;169.98;60.08;;;;;;;;;;4991619;28;20049;-75
2022/01/18 04:37:28;;;;;;;210.40;68.72;;;;;;;;;;4998452;28;20085;-77
2022/01/18 04:39:58;;;;;;;210.40;60.80;;;;;;;;;;5000296;28;20034;-80
2022/01/18 04:43:02;;;;;;;192.73;61.15;;;;;;;;;;4979984;28;20062;-75
2022/01/18 04:50:49;;;;;;;188.65;63.63;;;;;;;;;;5018885;28;20063;-74
2022/01/18 04:53:19;;;;;;;186.70;65.72;;;;;;;;;;5003403;28;20022;-74
2022/01/18 04:55:54;;;;;;;210.82;66.97;;;;;;;;;;5015510;28;20049;-74
2022/01/18 04:58:23;;;;;;;196.57;68.15;;;;;;;;;;5014004;28;20099;-76
2022/01/18 05:00:51;;;;;;;187.68;63.70;;;;;;;;;;5014274;28;20068;-71
2022/01/18 05:03:20;;;;;;;193.23;72.30;;;;;;;;;;5007538;28;20109;-74
2022/01/18 05:05:53;;;;;;;215.63;67.88;;;;;;;;;;4988678;28;20057;-70
2022/01/18 05:08:20;;;;;;;194.48;67.30;;;;;;;;;;5004195;28;20031;-69
2022/01/18 05:10:54;;;;;;;178.35;62.10;;;;;;;;;;5002789;28;20415;-69
2022/01/18 05:13:50;;;;;;;174.52;60.78;;;;;;;;;;4988392;28;20018;-70
2022/01/18 05:16:50;;;;;;;194.23;63.25;;;;;;;;;;4967936;28;20030;-71
2022/01/18 05:19:27;;;;;;;177.07;63.70;;;;;;;;;;4986826;28;20038;-73
2022/01/18 05:24:45;;;;;;;193.05;65.68;;;;;;;;;;4966001;28;20027;-74
2022/01/18 05:27:13;;;;;;;177.35;62.38;;;;;;;;;;4966029;28;20057;-74
2022/01/18 05:29:40;;;;;;;180.27;64.20;;;;;;;;;;4970251;28;20030;-71
2022/01/18 05:32:08;;;;;;;202.23;69.45;;;;;;;;;;4976040;28;20088;-75
2022/01/18 05:34:34;;;;;;;205.13;70.00;;;;;;;;;;4975783;28;20050;-78
2022/01/18 05:37:02;;;;;;;170.88;64.85;;;;;;;;;;4975686;28;20035;-72
2022/01/18 05:39:29;;;;;;;156.30;59.80;;;;;;;;;;4974962;28;20029;-73
2022/01/18 05:41:57;;;;;;;168.45;62.63;;;;;;;;;;4976463;28;20034;-75
2022/01/18 05:44:26;;;;;;;183.63;66.32;;;;;;;;;;4975159;28;20777;-72
2022/01/18 05:46:56;;;;;;;182.27;65.43;;;;;;;;;;4988927;28;20073;-76
2022/01/18 05:49:24;;;;;;;197.30;62.30;;;;;;;;;;5013873;28;20057;-76
2022/01/18 05:51:51;;;;;;;170.68;60.42;;;;;;;;;;5013951;28;20018;-75
2022/01/18 05:54:19;;;;;;;170.43;59.22;;;;;;;;;;5014658;28;20041;-74
2022/01/18 05:56:46;;;;;;;185.98;65.07;;;;;;;;;;5008994;28;20030;-74
2022/01/18 05:59:21;;;;;;;194.02;69.68;;;;;;;;;;5004516;28;20343;-81
2022/01/18 06:01:51;;;;;;;197.70;71.07;;;;;;;;;;4995663;28;20039;-76
2022/01/18 06:06:51;;;;;;;185.48;65.00;;;;;;;;;;4992588;28;20037;-78
2022/01/18 06:07:06;;;;;;;181.27;64.00;;;;;;;;;;4996827;28;20070;-76
2022/01/18 06:09:33;;;;;;;160.80;60.58;;;;;;;;;;4995657;28;20026;-74
2022/01/18 06:12:04;;;;;;;169.88;66.55;;;;;;;;;;4996137;28;20105;-73
2022/01/18 06:14:33;;;;;;;155.88;60.20;;;;;;;;;;5002043;28;20034;-75
2022/01/18 06:17:01;;;;;;;160.07;61.42;;;;;;;;;;5000603;28;20097;-74
2022/01/18 06:19:28;;;;;;;147.02;59.65;;;;;;;;;;4986632;28;20049;-77
2022/01/18 06:21:56;;;;;;;152.65;63.17;;;;;;;;;;4982634;28;20050;-79
2022/01/18 06:24:25;;;;;;;152.50;62.22;;;;;;;;;;4989638;28;20077;-77
2022/01/18 06:26:55;;;;;;;133.65;58.13;;;;;;;;;;4992576;28;20023;-74
2022/01/18 06:29:25;;;;;;;123.90;52.30;;;;;;;;;;4992218;28;20027;-76
2022/01/18 06:31:56;;;;;;;124.35;52.58;;;;;;;;;;4992376;28;20019;-80
2022/01/18 06:34:22;;;;;;;124.35;52.00;;;;;;;;;;4994136;28;20331;-80
2022/01/18 06:36:50;;;;;;;122.15;53.20;;;;;;;;;;5019988;28;20025;-81
2022/01/18 06:39:17;;;;;;;132.43;57.70;;;;;;;;;;5006230;28;20110;-81
2022/01/18 06:41:45;;;;;;;116.40;53.70;;;;;;;;;;5001340;28;20415;-80
2022/01/18 06:44:13;;;;;;;138.38;62.78;;;;;;;;;;5001369;28;20037;-80
2022/01/18 06:46:41;;;;;;;136.48;61.22;;;;;;;;;;5041783;28;20026;-79
2022/01/18 06:49:09;;;;;;;116.03;52.45;;;;;;;;;;5010081;28;20034;-82
2022/01/18 06:51:38;;;;;;;126.10;56.40;;;;;;;;;;5013086;28;20044;-81
2022/01/18 06:54:12;;;;;;;136.55;63.28;;;;;;;;;;5045922;28;20022;-82
2022/01/18 06:56:44;;;;;;;145.95;63.38;;;;;;;;;;5013124;28;20025;-78
2022/01/18 06:59:11;;;;;;;127.10;59.47;;;;;;;;;;5001566;28;20014;-78
2022/01/18 07:01:39;;;;;;;120.38;54.25;;;;;;;;;;4999099;28;20026;-76
2022/01/18 07:04:06;;;;;;;122.15;55.72;;;;;;;;;;4999739;28;20110;-76
2022/01/18 07:06:34;;;;;;;107.10;50.22;;;;;;;;;;5018776;28;20033;-75
2022/01/18 07:09:02;;;;;;;102.65;47.60;;;;;;;;;;5017343;28;20056;-74
2022/01/18 07:11:30;;;;;;;126.50;52.75;;;;;;;;;;5018231;28;20033;-78
2022/01/18 07:13:57;;;;;;;127.18;54.22;;;;;;;;;;5018767;28;20405;-77
2022/01/18 07:16:25;;;;;;;125.85;57.25;;;;;;;;;;5018869;28;20022;-78
2022/01/18 07:18:52;;;;;;;146.40;59.42;;;;;;;;;;5018690;28;20025;-77
2022/01/18 07:21:20;;;;;;;137.43;56.28;;;;;;;;;;5018656;28;20025;-74
2022/01/18 07:23:48;;;;;;;134.48;55.58;;;;;;;;;;5018206;28;20030;-75
2022/01/18 07:26:15;;;;;;;156.38;64.82;;;;;;;;;;5018220;28;20026;-78
2022/01/18 07:28:43;;;;;;;144.70;60.47;;;;;;;;;;5018151;28;20082;-78
2022/01/18 07:31:16;;;;;;;142.65;59.15;;;;;;;;;;5018384;28;20073;-78
2022/01/18 07:33:45;;;;;;;142.40;61.63;;;;;;;;;;5017309;28;20026;-78
2022/01/18 07:36:12;;;;;;;163.20;74.00;;;;;;;;;;5017069;28;20059;-76
2022/01/18 07:38:40;;;;;;;127.00;56.10;;;;;;;;;;5018160;28;20318;-77
2022/01/18 07:41:08;;;;;;;142.35;61.25;;;;;;;;;;5016811;28;20104;-78
2022/01/18 07:43:38;;;;;;;134.75;60.30;;;;;;;;;;5018582;28;20447;-78
2022/01/18 07:46:05;;;;;;;144.88;62.17;;;;;;;;;;5017681;28;20033;-79
2022/01/18 07:48:33;;;;;;;142.85;58.72;;;;;;;;;;5017085;28;20449;-76
2022/01/18 07:51:01;;;;;;;133.77;57.35;;;;;;;;;;5017320;28;20026;-79
2022/01/18 07:53:28;;;;;;;132.85;56.40;;;;;;;;;;5017992;28;20026;-79
2022/01/18 07:55:56;;;;;;;121.25;53.33;;;;;;;;;;5016691;28;20026;-78
2022/01/18 07:58:23;;;;;;;125.65;55.83;;;;;;;;;;5018720;28;20025;-77
2022/01/18 08:00:51;;;;;;;157.55;67.43;;;;;;;;;;5018494;28;20052;-79
2022/01/18 08:03:19;;;;;;;117.57;54.70;;;;;;;;;;5020387;28;20032;-78
2022/01/18 08:05:49;;;;;;;122.45;51.92;;;;;;;;;;5017196;28;20402;-79
2022/01/18 08:08:17;;;;;;;114.40;48.55;;;;;;;;;;5017182;28;20030;-79
2022/01/18 08:10:46;;;;;;;104.57;44.35;;;;;;;;;;5018276;28;20419;-78
2022/01/18 08:13:16;;;;;;;117.85;47.88;;;;;;;;;;5019332;28;20026;-80
2022/01/18 08:15:56;;;;;;;112.25;46.28;;;;;;;;;;5017977;28;20029;-80
2022/01/18 08:18:23;;;;;;;132.77;49.83;;;;;;;;;;5018147;28;20025;-78
2022/01/18 08:20:51;;;;;;;141.45;52.13;;;;;;;;;;5017485;28;20097;-80
2022/01/18 08:23:18;;;;;;;149.80;60.83;;;;;;;;;;5017653;28;20022;-79
2022/01/18 08:25:46;;;;;;;147.25;50.35;;;;;;;;;;5017550;28;20304;-78
2022/01/18 08:28:14;;;;;;;133.45;48.97;;;;;;;;;;5016548;28;20026;-80
2022/01/18 08:30:41;;;;;;;135.00;51.67;;;;;;;;;;5020671;28;20026;-80
2022/01/18 08:33:11;;;;;;;116.53;46.88;;;;;;;;;;5018270;28;20104;-81
2022/01/18 08:35:39;;;;;;;120.93;46.97;;;;;;;;;;5018874;28;20100;-80
2022/01/18 08:38:05;;;;;;;111.85;47.13;;;;;;;;;;5017326;28;20038;-81
2022/01/18 08:40:33;;;;;;;141.85;51.95;;;;;;;;;;5016405;28;20114;-79
2022/01/18 08:43:01;;;;;;;125.63;49.65;;;;;;;;;;5016249;28;20029;-80
2022/01/18 08:45:28;;;;;;;127.78;49.28;;;;;;;;;;5017601;28;20030;-81
2022/01/18 08:47:56;;;;;;;128.90;50.72;;;;;;;;;;5016458;28;20426;-80
2022/01/18 08:50:23;;;;;;;128.32;51.72;;;;;;;;;;5017267;28;20077;-81
2022/01/18 08:52:52;;;;;;;122.22;50.85;;;;;;;;;;5016731;28;20022;-80
2022/01/18 08:55:20;;;;;;;121.57;48.17;;;;;;;;;;5017956;28;20072;-80
2022/01/18 08:57:50;;;;;;;112.15;45.53;;;;;;;;;;5017639;28;20105;-80
2022/01/18 09:00:20;;;;;;;124.03;48.28;;;;;;;;;;5019953;28;20041;-80
2022/01/18 09:02:50;;;;;;;121.40;49.67;;;;;;;;;;5019769;28;20033;-82
2022/01/18 09:05:23;;;;;;;121.53;47.88;;;;;;;;;;5018918;28;20426;-80
2022/01/18 09:08:06;;;;;;;110.05;46.28;;;;;;;;;;5021334;28;20025;-83
2022/01/18 09:10:34;;;;;;;105.13;41.75;;;;;;;;;;5031469;28;20034;-80
2022/01/18 09:13:01;;;;;;;107.25;41.83;;;;;;;;;;5017272;28;20022;-79
2022/01/18 09:15:29;;;;;;;118.20;45.47;;;;;;;;;;5015516;28;20034;-78
2022/01/18 09:17:58;;;;;;;89.63;36.70;;;;;;;;;;5015399;28;20030;-78
2022/01/18 09:20:31;;;;;;;92.50;39.22;;;;;;;;;;5016966;28;20125;-79
2022/01/18 09:23:03;;;;;;;82.68;34.45;;;;;;;;;;5016020;28;20422;-79
2022/01/18 09:25:33;;;;;;;89.55;35.00;;;;;;;;;;5015097;28;20037;-79
2022/01/18 09:28:05;;;;;;;85.13;33.05;;;;;;;;;;5016421;28;20051;-75
2022/01/18 09:30:36;;;;;;;80.32;32.85;;;;;;;;;;5015209;28;20044;-78
2022/01/18 09:33:06;;;;;;;64.85;28.05;;;;;;;;;;5017052;28;20029;-78
2022/01/18 09:35:35;;;;;;;62.97;23.92;;;;;;;;;;5016751;28;20034;-77
2022/01/18 09:38:02;;;;;;;61.80;25.02;;;;;;;;;;5016898;28;20083;-79
2022/01/18 09:40:38;;;;;;;62.85;24.33;;;;;;;;;;5016412;28;20065;-75
2022/01/18 09:43:12;;;;;;;62.60;24.88;;;;;;;;;;5015700;28;20034;-77
2022/01/18 09:45:43;;;;;;;52.05;23.00;;;;;;;;;;5014139;28;20336;-81
2022/01/18 09:48:11;;;;;;;52.70;23.05;;;;;;;;;;5035921;28;20056;-82
2022/01/18 09:50:40;;;;;;;76.60;32.78;;;;;;;;;;5036849;28;20014;-80
2022/01/18 09:53:09;;;;;;;74.18;27.27;;;;;;;;;;5036577;28;20026;-80
2022/01/18 09:55:37;;;;;;;74.93;29.15;;;;;;;;;;4998738;28;20347;-79
2022/01/18 09:58:07;;;;;;;78.80;31.45;;;;;;;;;;5015737;28;20058;-77
2022/01/18 10:00:39;;;;;;;76.10;29.55;;;;;;;;;;4998967;28;20360;-77
2022/01/18 10:03:23;;;;;;;71.57;29.50;;;;;;;;;;4998315;28;20030;-79
2022/01/18 10:05:55;;;;;;;85.85;32.67;;;;;;;;;;4996118;28;20030;-77
2022/01/18 10:08:23;;;;;;;86.80;32.08;;;;;;;;;;4978138;28;20027;-78
2022/01/18 10:10:53;;;;;;;85.85;36.13;;;;;;;;;;4994930;28;20101;-78
2022/01/18 10:13:22;;;;;;;78.65;32.03;;;;;;;;;;4995996;28;20026;-75
2022/01/18 10:16:09;;;;;;;102.25;47.50;;;;;;;;;;4995130;28;20058;-78
2022/01/18 10:18:46;;;;;;;93.78;40.17;;;;;;;;;;4974956;28;20049;-74
2022/01/18 10:21:16;;;;;;;86.38;36.95;;;;;;;;;;4975867;28;20443;-80
2022/01/18 10:23:49;;;;;;;88.82;36.72;;;;;;;;;;4975014;28;20039;-73
2022/01/18 10:26:21;;;;;;;108.15;47.70;;;;;;;;;;4975157;28;20053;-75
2022/01/18 10:28:58;;;;;;;88.40;38.22;;;;;;;;;;4975405;28;20106;-76
2022/01/18 10:37:01;;;;;;;83.13;38.40;;;;;;;;;;4956009;29;20034;-81
2022/01/18 10:39:49;;;;;;;85.90;33.80;;;;;;;;;;4966639;28;20027;-76
2022/01/18 10:42:18;;;;;;;95.72;37.20;;;;;;;;;;4903732;29;20036;-75
2022/01/18 10:44:57;;;;;;;82.97;37.38;;;;;;;;;;4902603;29;20044;-83
2022/01/18 10:47:25;;;;;;;79.60;33.03;;;;;;;;;;4902415;29;20063;-79
2022/01/18 10:49:53;;;;;;;79.85;33.25;;;;;;;;;;4918459;29;20036;-81
2022/01/18 10:52:22;;;;;;;71.85;30.42;;;;;;;;;;4902257;29;20043;-77
2022/01/18 10:54:54;;;;;;;70.95;30.17;;;;;;;;;;4919118;29;20174;-76
2022/01/18 10:57:24;;;;;;;79.50;35.70;;;;;;;;;;4921355;29;20453;-77
2022/01/18 10:59:58;;;;;;;74.85;28.52;;;;;;;;;;4924793;29;20437;-84
2022/01/18 11:02:27;;;;;;;64.43;29.63;;;;;;;;;;4925420;29;20028;-79
2022/01/18 11:04:58;;;;;;;71.32;31.05;;;;;;;;;;4926020;29;20038;-81
2022/01/18 11:07:26;;;;;;;73.15;30.55;;;;;;;;;;4926251;29;20066;-80
2022/01/18 11:09:55;;;;;;;72.15;29.05;;;;;;;;;;4940684;29;20095;-82
2022/01/18 11:12:27;;;;;;;81.70;32.13;;;;;;;;;;4925264;29;20095;-78
2022/01/18 11:15:04;;;;;;;83.22;32.75;;;;;;;;;;4940801;29;20083;-83
2022/01/18 11:17:39;;;;;;;101.00;35.35;;;;;;;;;;4925023;29;20024;-83
2022/01/18 11:20:08;;;;;;;86.25;32.45;;;;;;;;;;4989883;28;20031;-82
2022/01/18 11:22:36;;;;;;;94.47;32.88;;;;;;;;;;5014294;28;20026;-83
2022/01/18 11:25:04;;;;;;;88.90;31.83;;;;;;;;;;5015273;28;20026;-83
2022/01/18 11:27:35;;;;;;;89.43;32.30;;;;;;;;;;5014666;28;20109;-83
2022/01/18 11:30:04;;;;;;;74.57;30.75;;;;;;;;;;5014782;28;20026;-82
2022/01/18 11:32:32;;;;;;;74.40;31.08;;;;;;;;;;5014815;28;20022;-81
2022/01/18 11:35:04;;;;;;;83.68;30.27;;;;;;;;;;5014503;28;20434;-82
2022/01/18 11:37:49;;;;;;;76.53;30.48;;;;;;;;;;5014348;28;20022;-83
2022/01/18 11:40:18;;;;;;;85.35;29.98;;;;;;;;;;5014223;28;20026;-83
2022/01/18 11:42:50;;;;;;;76.72;30.70;;;;;;;;;;5015606;28;20027;-82
2022/01/18 11:45:29;;;;;;;86.10;35.10;;;;;;;;;;5015356;28;20034;-84
2022/01/18 11:48:13;;;;;;;92.97;38.85;;;;;;;;;;5000901;28;20030;-82
2022/01/18 11:50:43;;;;;;;94.20;37.83;;;;;;;;;;5014932;28;20319;-82
2022/01/18 11:53:28;;;;;;;93.85;36.85;;;;;;;;;;4999370;28;20042;-83
2022/01/18 11:55:57;;;;;;;102.07;38.10;;;;;;;;;;4999031;28;20406;-82
2022/01/18 11:58:29;;;;;;;93.90;39.60;;;;;;;;;;5014384;28;20030;-82
2022/01/18 12:00:59;;;;;;;104.35;40.85;;;;;;;;;;5014731;28;20038;-82
2022/01/18 12:03:28;;;;;;;106.75;43.17;;;;;;;;;;5016247;28;20037;-82
2022/01/18 12:05:57;;;;;;;103.32;44.05;;;;;;;;;;4999081;28;20104;-83
2022/01/18 12:08:38;;;;;;;114.30;45.60;;;;;;;;;;4998935;28;20157;-83
2022/01/18 12:11:25;;;;;;;131.77;50.80;;;;;;;;;;5013284;28;20022;-80
2022/01/18 12:14:03;;;;;;;129.48;49.50;;;;;;;;;;4938603;29;20048;-83
2022/01/18 12:16:33;;;;;;;131.30;50.15;;;;;;;;;;4938750;29;20111;-82
2022/01/18 12:19:06;;;;;;;117.72;50.15;;;;;;;;;;4938244;29;20044;-80
2022/01/18 12:21:35;;;;;;;133.52;53.80;;;;;;;;;;4938311;29;20038;-81
2022/01/18 12:24:18;;;;;;;138.32;60.20;;;;;;;;;;4938351;29;20121;-82
2022/01/18 12:26:58;;;;;;;140.05;60.95;;;;;;;;;;4939273;29;20051;-81
2022/01/18 12:29:50;;;;;;;162.25;67.53;;;;;;;;;;4938922;29;20039;-82
2022/01/18 12:32:40;;;;;;;157.02;73.20;;;;;;;;;;4938735;29;20070;-81
2022/01/18 12:35:22;;;;;;;173.93;78.40;;;;;;;;;;4938825;29;20086;-81
2022/01/18 12:37:48;;;;;;;180.10;82.50;;;;;;;;;;4938510;29;20074;-81
2022/01/18 12:40:26;;;;;;;195.15;86.40;;;;;;;;;;4938520;29;20035;-82
2022/01/18 12:45:38;;;;;;;204.48;97.90;;;;;;;;;;4938401;29;20027;-81
2022/01/18 12:48:08;;;;;;;220.30;98.75;;;;;;;;;;4938199;29;20031;-81
2022/01/18 12:50:49;;;;;;;240.57;117.63;;;;;;;;;;4962310;28;20451;-80
2022/01/18 12:53:45;;;;;;;244.20;120.95;;;;;;;;;;5013889;28;20106;-82
2022/01/18 12:56:53;;;;;;;267.65;125.97;;;;;;;;;;5017685;28;20042;-82
2022/01/18 12:59:31;;;;;;;269.27;129.02;;;;;;;;;;5015252;28;20031;-82
2022/01/18 13:01:59;;;;;;;258.27;123.40;;;;;;;;;;5014410;28;20050;-83
2022/01/18 13:04:29;;;;;;;265.17;126.90;;;;;;;;;;4999289;28;20022;-83
2022/01/18 13:07:01;;;;;;;235.13;114.85;;;;;;;;;;5015006;28;20327;-82
2022/01/18 13:09:52;;;;;;;246.23;111.18;;;;;;;;;;5013442;28;20034;-82
2022/01/18 13:12:46;;;;;;;229.48;104.60;;;;;;;;;;4997511;28;20034;-83
2022/01/18 13:15:23;;;;;;;228.98;106.22;;;;;;;;;;5013193;28;20022;-81
2022/01/18 13:23:45;;;;;;;175.15;86.65;;;;;;;;;;4997889;28;20172;-80
2022/01/18 13:26:13;;;;;;;150.15;72.22;;;;;;;;;;4997096;28;20023;-80
2022/01/18 13:28:41;;;;;;;167.73;74.80;;;;;;;;;;4997195;28;20030;-79
2022/01/18 13:31:19;;;;;;;151.75;71.88;;;;;;;;;;5012159;28;20080;-80
2022/01/18 13:34:00;;;;;;;156.80;76.55;;;;;;;;;;4996856;28;20026;-80
2022/01/18 13:36:29;;;;;;;235.73;111.30;;;;;;;;;;4957839;28;20059;-79
2022/01/18 13:38:57;;;;;;;340.85;156.55;;;;;;;;;;4973356;28;20023;-79
2022/01/18 13:41:24;;;;;;;366.63;176.18;;;;;;;;;;4958117;28;20035;-80
2022/01/18 13:43:57;;;;;;;370.02;179.75;;;;;;;;;;4957917;28;20102;-80
2022/01/18 13:46:29;;;;;;;353.42;166.30;;;;;;;;;;4973167;28;20034;-80
2022/01/18 13:49:06;;;;;;;346.75;163.30;;;;;;;;;;4958220;29;20470;-80
2022/01/18 13:51:33;;;;;;;449.45;217.32;;;;;;;;;;4957977;28;20023;-80
2022/01/18 13:54:07;;;;;;;425.15;212.02;;;;;;;;;;4972837;28;20027;-80
2022/01/18 13:56:46;;;;;;;435.98;216.20;;;;;;;;;;4958103;28;20102;-80
2022/01/18 13:59:14;;;;;;;423.30;211.40;;;;;;;;;;4973147;28;20031;-81
2022/01/18 14:01:42;;;;;;;441.83;220.38;;;;;;;;;;4972786;28;20023;-80
2022/01/18 14:04:19;;;;;;;458.90;236.43;;;;;;;;;;4958012;28;20031;-81
2022/01/18 14:06:49;;;;;;;471.20;246.50;;;;;;;;;;4972845;28;20031;-80
2022/01/18 14:09:20;;;;;;;493.92;260.33;;;;;;;;;;4957735;28;20082;-81
2022/01/18 14:11:53;;;;;;;462.63;227.68;;;;;;;;;;4973225;28;20352;-81
2022/01/18 14:14:24;;;;;;;472.00;233.48;;;;;;;;;;4957675;28;20413;-80
2022/01/18 14:16:59;;;;;;;459.92;230.35;;;;;;;;;;4957859;28;20047;-81
2022/01/18 14:19:38;;;;;;;487.52;248.43;;;;;;;;;;4957775;28;20428;-80
2022/01/18 14:22:26;;;;;;;532.00;273.67;;;;;;;;;;4957744;29;20107;-83
2022/01/18 14:24:58;;;;;;;522.80;257.02;;;;;;;;;;4975073;28;20027;-81
2022/01/18 14:27:44;;;;;;;463.27;222.10;;;;;;;;;;4959950;28;20047;-80
2022/01/18 14:30:21;;;;;;;411.98;199.55;;;;;;;;;;4957980;28;20038;-81
2022/01/18 14:32:51;;;;;;;394.55;187.70;;;;;;;;;;4958034;28;20428;-80
2022/01/18 14:35:19;;;;;;;385.98;196.30;;;;;;;;;;4998922;28;20189;-81
2022/01/18 14:37:50;;;;;;;394.65;195.73;;;;;;;;;;5016041;28;20089;-81
2022/01/18 14:40:28;;;;;;;392.17;196.60;;;;;;;;;;5000161;28;20065;-81
2022/01/18 14:43:05;;;;;;;401.05;199.32;;;;;;;;;;5015494;28;20026;-81
2022/01/18 14:45:39;;;;;;;395.30;197.48;;;;;;;;;;5016003;28;20050;-81
2022/01/18 14:48:09;;;;;;;374.08;182.13;;;;;;;;;;4999917;28;20434;-81
2022/01/18 14:50:38;;;;;;;404.60;197.65;;;;;;;;;;5000209;28;20301;-81
2022/01/18 14:53:06;;;;;;;402.17;192.57;;;;;;;;;;5000186;28;20022;-82
2022/01/18 14:55:34;;;;;;;389.80;199.43;;;;;;;;;;4999889;28;20030;-81
2022/01/18 14:58:02;;;;;;;374.23;183.07;;;;;;;;;;5000073;28;20031;-80
2022/01/18 15:00:30;;;;;;;458.15;226.50;;;;;;;;;;5015026;28;20042;-81
2022/01/18 15:02:57;;;;;;;482.70;247.52;;;;;;;;;;5015034;28;20085;-81
2022/01/18 15:05:27;;;;;;;466.55;241.80;;;;;;;;;;4999682;28;20050;-80
2022/01/18 15:07:55;;;;;;;490.27;251.82;;;;;;;;;;5014746;28;20072;-81
2022/01/18 15:10:23;;;;;;;415.90;213.98;;;;;;;;;;5014856;28;20080;-81
2022/01/18 15:12:51;;;;;;;425.00;213.18;;;;;;;;;;5000106;28;20023;-80
2022/01/18 15:15:19;;;;;;;426.35;220.75;;;;;;;;;;5014976;28;20046;-80
2022/01/18 15:17:48;;;;;;;450.35;230.85;;;;;;;;;;5015967;28;20031;-83
2022/01/18 15:20:17;;;;;;;433.55;224.57;;;;;;;;;;5016022;28;20331;-80
2022/01/18 15:22:45;;;;;;;426.42;217.30;;;;;;;;;;5000939;28;20022;-82
2022/01/18 15:25:13;;;;;;;401.33;202.02;;;;;;;;;;5000701;28;20033;-82
2022/01/18 15:27:41;;;;;;;417.38;213.18;;;;;;;;;;5014718;28;20117;-82
2022/01/18 15:30:11;;;;;;;425.05;235.90;;;;;;;;;;4999786;28;20023;-82
2022/01/18 15:32:42;;;;;;;401.23;217.50;;;;;;;;;;5015281;28;20069;-82
2022/01/18 15:35:09;;;;;;;376.45;193.52;;;;;;;;;;5017028;28;20050;-81
2022/01/18 15:37:36;;;;;;;390.95;203.88;;;;;;;;;;4999669;28;20015;-82
2022/01/18 15:40:06;;;;;;;388.08;199.90;;;;;;;;;;5014833;28;20018;-80
2022/01/18 15:42:34;;;;;;;434.85;227.63;;;;;;;;;;4999639;28;20019;-82
2022/01/18 15:45:03;;;;;;;321.85;167.85;;;;;;;;;;4998951;28;20479;-80